Time;durP1;ratioP1;P1;durP2;ratioP2;P2;SDS_P1;SDS_P2;PMS_P1;PMS_P2;Temp;Humidity;BMP_temperature;BMP_pressure;BME280_temperature;BME280_humidity;BME280_pressure;Samples;Min_cycle;Max_cycle;Signal;HPM_P1;HPM_P2
2022/04/13 00:01:12;;;;;;;6.65;2.35;;;;;;;10.93;100.00;100102.69;5050914;28;20028;-59
2022/04/13 00:03:37;;;;;;;5.00;2.50;;;;;;;11.05;100.00;100133.53;5050130;28;20874;-59
2022/04/13 00:06:03;;;;;;;3.60;2.08;;;;;;;10.92;100.00;100111.50;5051142;28;21017;-59
2022/04/13 00:08:28;;;;;;;6.43;2.25;;;;;;;10.99;100.00;100133.91;5049977;28;20919;-59
2022/04/13 00:10:53;;;;;;;6.15;2.13;;;;;;;10.89;100.00;100124.81;5049709;28;20189;-59
2022/04/13 00:13:19;;;;;;;6.07;2.60;;;;;;;10.96;100.00;100136.69;5048849;28;20024;-59
2022/04/13 00:15:44;;;;;;;5.28;2.80;;;;;;;10.93;100.00;100142.13;5048080;28;20032;-59
2022/04/13 00:18:10;;;;;;;7.32;2.50;;;;;;;10.85;100.00;100128.56;5049712;28;20031;-59
2022/04/13 00:20:36;;;;;;;5.22;2.53;;;;;;;10.90;100.00;100144.06;5049236;28;20055;-59
2022/04/13 00:23:01;;;;;;;4.95;2.28;;;;;;;10.90;100.00;100138.81;5030090;28;20735;-59
2022/04/13 00:25:28;;;;;;;4.63;2.25;;;;;;;10.86;100.00;100143.41;5050107;28;20028;-59
2022/04/13 00:27:54;;;;;;;5.28;2.20;;;;;;;10.87;100.00;100139.84;5047801;28;20218;-59
2022/04/13 00:30:19;;;;;;;6.15;3.22;;;;;;;10.87;100.00;100124.06;5046400;28;20031;-59
2022/04/13 00:32:44;;;;;;;5.38;2.83;;;;;;;10.98;100.00;100142.75;5048192;28;20733;-59
2022/04/13 00:35:10;;;;;;;5.18;2.65;;;;;;;10.96;100.00;100120.94;5047978;28;20071;-59
2022/04/13 00:37:37;;;;;;;7.93;2.95;;;;;;;11.20;100.00;100144.97;5047801;28;20020;-59
2022/04/13 00:40:03;;;;;;;6.65;2.40;;;;;;;11.15;100.00;100128.63;5048280;28;20910;-59
2022/04/13 00:42:30;;;;;;;6.40;2.45;;;;;;;11.28;100.00;100146.25;5047705;28;20028;-59
2022/04/13 00:44:55;;;;;;;7.85;2.45;;;;;;;11.26;100.00;100158.63;5047464;28;20082;-59
2022/04/13 00:47:21;;;;;;;15.13;2.55;;;;;;;11.12;100.00;100148.03;5048995;28;20143;-59
2022/04/13 00:49:47;;;;;;;5.75;2.50;;;;;;;11.21;100.00;100165.94;5048924;28;20588;-59
2022/04/13 00:52:12;;;;;;;6.50;2.83;;;;;;;11.39;100.00;100160.59;5030147;28;20887;-59
2022/04/13 00:54:41;;;;;;;5.57;2.70;;;;;;;11.53;100.00;100158.84;5047455;28;20082;-59
2022/04/13 00:57:09;;;;;;;7.60;3.30;;;;;;;11.59;100.00;100147.13;5030159;28;20081;-59
2022/04/13 00:59:38;;;;;;;7.70;3.20;;;;;;;11.63;100.00;100153.88;5048970;28;20377;-59
2022/04/13 01:02:08;;;;;;;5.82;3.20;;;;;;;11.56;100.00;100160.44;5047535;28;20024;-59
2022/04/13 01:04:34;;;;;;;6.18;2.65;;;;;;;11.10;100.00;100094.69;5047305;28;20084;-59
2022/04/13 01:07:01;;;;;;;9.10;2.92;;;;;;;11.53;100.00;100160.63;5048020;28;20233;-59
2022/04/13 01:09:27;;;;;;;13.07;3.85;;;;;;;11.44;100.00;100155.88;5029406;28;20024;-59
2022/04/13 01:11:52;;;;;;;5.15;3.35;;;;;;;11.32;100.00;100153.97;5048466;28;20067;-59
2022/04/13 01:14:18;;;;;;;4.95;2.92;;;;;;;11.33;100.00;100148.59;5047158;28;20044;-59
2022/04/13 01:16:43;;;;;;;5.60;2.80;;;;;;;11.40;100.00;100168.38;5047521;28;20036;-59
2022/04/13 01:19:13;;;;;;;6.28;3.58;;;;;;;11.35;100.00;100164.31;5030181;28;20024;-59
2022/04/13 01:21:42;;;;;;;9.23;3.95;;;;;;;11.37;100.00;100181.69;5030575;28;20036;-59
2022/04/13 01:24:08;;;;;;;7.93;3.83;;;;;;;11.34;100.00;100174.00;5047693;28;20035;-58
2022/04/13 01:26:34;;;;;;;9.55;3.55;;;;;;;11.16;100.00;100149.56;5048043;28;20040;-59
2022/04/13 01:28:59;;;;;;;6.85;3.80;;;;;;;11.33;100.00;100185.44;5047904;28;20024;-59
2022/04/13 01:31:25;;;;;;;9.23;3.20;;;;;;;11.28;100.00;100188.34;5043900;28;20135;-59
2022/04/13 01:33:50;;;;;;;6.53;3.67;;;;;;;11.28;100.00;100190.13;5048741;28;20206;-59
2022/04/13 01:36:16;;;;;;;10.13;3.97;;;;;;;11.22;100.00;100199.19;5047228;28;20031;-59
2022/04/13 01:38:41;;;;;;;8.27;3.70;;;;;;;11.27;100.00;100209.47;5040118;28;20865;-59
2022/04/13 01:41:06;;;;;;;6.07;3.17;;;;;;;11.23;100.00;100206.16;5044456;28;20043;-59
2022/04/13 01:43:32;;;;;;;5.53;3.35;;;;;;;11.21;100.00;100208.03;5046549;28;20066;-59
2022/04/13 01:45:57;;;;;;;8.27;2.97;;;;;;;11.13;100.00;100198.84;5048449;28;20028;-59
2022/04/13 01:48:23;;;;;;;10.32;4.28;;;;;;;11.12;100.00;100198.00;5046576;28;20139;-59
2022/04/13 01:50:49;;;;;;;6.50;3.55;;;;;;;11.32;100.00;100210.06;5046918;28;20034;-59
2022/04/13 01:53:15;;;;;;;9.73;4.70;;;;;;;11.39;100.00;100207.94;5046615;28;20039;-59
2022/04/13 01:55:41;;;;;;;15.27;4.82;;;;;;;11.56;100.00;100227.06;5046751;28;20210;-58
2022/04/13 01:58:06;;;;;;;8.15;4.45;;;;;;;11.61;100.00;100201.34;5046638;28;20016;-59
2022/04/13 02:00:32;;;;;;;6.93;3.97;;;;;;;11.74;100.00;100205.00;5048083;28;20892;-59
2022/04/13 02:02:57;;;;;;;9.60;5.05;;;;;;;11.93;100.00;100222.38;5046576;28;20055;-59
2022/04/13 02:05:22;;;;;;;10.73;4.18;;;;;;;12.00;100.00;100227.16;5045970;28;20913;-59
2022/04/13 02:07:48;;;;;;;9.50;4.03;;;;;;;11.99;100.00;100207.06;5047572;28;20151;-59
2022/04/13 02:10:13;;;;;;;7.53;4.25;;;;;;;12.19;100.00;100234.84;5045849;28;20330;-59
2022/04/13 02:12:39;;;;;;;9.43;4.07;;;;;;;12.19;100.00;100229.56;5045946;28;20079;-58
2022/04/13 02:15:05;;;;;;;8.43;4.40;;;;;;;12.36;100.00;100254.91;5046172;28;20959;-59
2022/04/13 02:17:31;;;;;;;7.03;4.03;;;;;;;12.34;100.00;100233.06;5047458;28;20106;-58
2022/04/13 02:19:56;;;;;;;8.45;3.25;;;;;;;12.43;100.00;100243.06;5045896;28;20020;-58
2022/04/13 02:22:21;;;;;;;10.38;5.00;;;;;;;12.43;100.00;100243.06;5046143;28;20036;-58
2022/04/13 02:24:47;;;;;;;13.43;3.65;;;;;;;12.52;100.00;100245.13;5045808;28;20914;-59
2022/04/13 02:27:13;;;;;;;7.97;4.00;;;;;;;12.52;100.00;100242.50;5045499;28;20865;-59
2022/04/13 02:29:39;;;;;;;12.60;4.53;;;;;;;12.55;100.00;100253.72;5047662;28;20030;-59
2022/04/13 02:32:06;;;;;;;7.20;4.25;;;;;;;12.56;100.00;100244.03;5045610;28;20965;-58
2022/04/13 02:34:32;;;;;;;16.88;4.50;;;;;;;12.49;100.00;100237.44;5046431;28;20123;-58
2022/04/13 02:36:58;;;;;;;7.55;4.20;;;;;;;12.51;100.00;100248.72;5045943;28;20039;-59
2022/04/13 02:39:24;;;;;;;7.65;4.70;;;;;;;12.52;100.00;100248.63;5045509;28;20039;-59
2022/04/13 02:41:49;;;;;;;6.97;3.75;;;;;;;12.45;100.00;100239.41;5047056;28;20407;-59
2022/04/13 02:44:15;;;;;;;7.90;4.20;;;;;;;12.39;100.00;100231.00;5045781;28;20055;-59
2022/04/13 02:46:41;;;;;;;9.82;4.65;;;;;;;12.32;100.00;100229.69;5046330;28;20105;-59
2022/04/13 02:49:07;;;;;;;9.10;4.07;;;;;;;12.37;100.00;100243.44;5047225;28;20024;-59
2022/04/13 02:51:32;;;;;;;9.15;4.43;;;;;;;12.34;100.00;100246.22;5046399;28;20890;-59
2022/04/13 02:53:58;;;;;;;8.10;3.95;;;;;;;12.26;100.00;100252.84;5047113;28;20024;-59
2022/04/13 02:56:23;;;;;;;7.60;4.63;;;;;;;12.04;100.00;100226.06;5046019;28;20886;-59
2022/04/13 02:58:48;;;;;;;8.27;3.75;;;;;;;12.07;100.00;100252.22;5046828;28;20030;-59
2022/04/13 03:01:14;;;;;;;12.77;4.47;;;;;;;11.83;100.00;100245.72;5045747;28;20139;-59
2022/04/13 03:03:39;;;;;;;8.35;4.10;;;;;;;11.74;100.00;100264.69;5045133;28;21185;-59
2022/04/13 03:06:04;;;;;;;7.75;3.95;;;;;;;11.53;100.00;100250.06;5047250;28;20044;-59
2022/04/13 03:08:30;;;;;;;9.48;4.22;;;;;;;11.44;100.00;100264.63;5044974;28;20978;-59
2022/04/13 03:10:55;;;;;;;7.60;4.28;;;;;;;11.19;100.00;100249.34;5046719;28;20024;-59
2022/04/13 03:13:21;;;;;;;6.63;4.05;;;;;;;11.16;100.00;100256.53;5045310;28;20117;-59
2022/04/13 03:15:46;;;;;;;11.82;5.20;;;;;;;11.04;100.00;100260.69;5046918;28;20358;-59
2022/04/13 03:18:11;;;;;;;9.88;4.43;;;;;;;10.84;100.00;100239.91;5045233;28;20125;-60
2022/04/13 03:20:37;;;;;;;6.97;3.88;;;;;;;10.79;100.00;100257.69;5046103;28;20109;-59
2022/04/13 03:23:02;;;;;;;7.28;4.57;;;;;;;10.61;100.00;100259.50;5046241;28;20804;-59
2022/04/13 03:25:28;;;;;;;11.25;5.22;;;;;;;10.61;100.00;100277.06;5047202;28;20019;-59
2022/04/13 03:27:54;;;;;;;13.45;5.13;;;;;;;10.49;100.00;100267.19;5047219;28;20054;-59
2022/04/13 03:30:19;;;;;;;9.95;4.53;;;;;;;10.36;100.00;100261.72;5045580;28;20035;-59
2022/04/13 03:32:45;;;;;;;5.18;3.33;;;;;;;10.33;100.00;100258.41;5045151;28;20892;-59
2022/04/13 03:35:11;;;;;;;10.10;5.10;;;;;;;10.23;100.00;100269.38;5045994;28;20059;-58
2022/04/13 03:37:40;;;;;;;12.25;4.30;;;;;;;10.13;100.00;100262.84;5029629;28;20790;-58
2022/04/13 03:40:10;;;;;;;6.63;4.00;;;;;;;10.02;100.00;100273.03;5045078;28;20028;-58
2022/04/13 03:42:36;;;;;;;9.55;4.63;;;;;;;9.97;100.00;100277.66;5045921;28;20920;-58
2022/04/13 03:45:07;;;;;;;9.32;4.95;;;;;;;9.89;100.00;100278.97;5045166;28;20163;-58
2022/04/13 03:47:33;;;;;;;8.65;4.05;;;;;;;9.30;100.00;100205.78;5045339;28;20028;-59
2022/04/13 03:49:59;;;;;;;9.75;4.97;;;;;;;9.72;100.00;100292.91;5045300;28;20200;-59
2022/04/13 03:52:24;;;;;;;9.75;5.25;;;;;;;9.65;100.00;100283.63;5045310;28;20835;-59
2022/04/13 03:54:50;;;;;;;15.85;4.90;;;;;;;9.53;100.00;100271.13;5045066;28;20431;-59
2022/04/13 03:57:15;;;;;;;12.65;4.95;;;;;;;9.54;100.00;100288.53;5045121;28;20071;-59
2022/04/13 03:59:40;;;;;;;9.50;5.07;;;;;;;9.48;100.00;100284.44;5027567;28;20039;-58
2022/04/13 04:02:06;;;;;;;7.05;4.13;;;;;;;9.22;100.00;100251.59;5046218;28;20874;-58
2022/04/13 04:04:31;;;;;;;7.03;4.25;;;;;;;9.36;100.00;100292.06;5046987;28;20910;-59
2022/04/13 04:06:57;;;;;;;12.82;4.53;;;;;;;9.30;100.00;100284.44;5051838;28;20131;-59
2022/04/13 04:09:22;;;;;;;7.13;4.65;;;;;;;9.26;100.00;100288.97;5052409;28;20808;-59
2022/04/13 04:11:47;;;;;;;7.00;4.47;;;;;;;9.23;100.00;100300.47;5049845;28;20028;-59
2022/04/13 04:14:13;;;;;;;10.35;4.40;;;;;;;9.11;100.00;100303.66;5050456;28;20024;-59
2022/04/13 04:16:38;;;;;;;10.00;4.68;;;;;;;9.06;100.00;100305.63;5049909;28;20020;-59
2022/04/13 04:19:03;;;;;;;8.93;5.18;;;;;;;8.89;100.00;100305.53;5047537;28;20032;-59
2022/04/13 04:21:29;;;;;;;13.20;5.30;;;;;;;8.88;100.00;100313.47;5046512;28;20035;-59
2022/04/13 04:23:54;;;;;;;6.13;4.25;;;;;;;8.87;100.00;100328.34;5047462;28;20121;-59
2022/04/13 04:26:19;;;;;;;8.27;4.70;;;;;;;8.80;100.00;100320.81;5047362;28;20047;-59
2022/04/13 04:28:45;;;;;;;9.15;5.20;;;;;;;8.78;100.00;100327.91;5047268;28;20876;-59
2022/04/13 04:31:10;;;;;;;9.00;4.68;;;;;;;8.76;100.00;100341.06;5048333;28;20036;-58
2022/04/13 04:33:35;;;;;;;8.52;4.78;;;;;;;8.67;100.00;100324.00;5047257;28;20034;-59
2022/04/13 04:36:01;;;;;;;7.70;4.35;;;;;;;8.63;100.00;100324.19;5049523;28;20039;-59
2022/04/13 04:38:30;;;;;;;7.40;4.47;;;;;;;8.66;100.00;100335.38;5048468;28;20024;-58
2022/04/13 04:40:56;;;;;;;9.25;5.07;;;;;;;8.64;100.00;100339.00;5047776;28;20972;-58
2022/04/13 04:43:21;;;;;;;8.77;5.55;;;;;;;8.56;100.00;100333.22;5049434;28;20193;-59
2022/04/13 04:45:46;;;;;;;9.45;4.88;;;;;;;8.53;100.00;100333.34;5047349;28;20032;-59
2022/04/13 04:48:12;;;;;;;10.07;5.22;;;;;;;8.07;100.00;100269.84;5047587;28;20397;-59
2022/04/13 04:50:38;;;;;;;15.40;5.40;;;;;;;8.51;100.00;100353.53;5047457;28;20028;-59
2022/04/13 04:53:03;;;;;;;8.38;5.20;;;;;;;8.42;100.00;100343.41;5047660;28;20138;-59
2022/04/13 04:55:29;;;;;;;6.97;4.40;;;;;;;8.46;100.00;100352.84;5047703;28;20078;-59
2022/04/13 04:57:54;;;;;;;7.18;4.75;;;;;;;8.46;100.00;100358.09;5048585;28;20858;-59
2022/04/13 05:00:21;;;;;;;12.93;5.70;;;;;;;8.39;100.00;100357.50;5046762;28;20413;-59
2022/04/13 05:02:48;;;;;;;9.02;5.75;;;;;;;8.40;100.00;100353.13;5049143;28;20024;-59
2022/04/13 05:05:14;;;;;;;6.65;5.03;;;;;;;8.22;100.00;100334.63;5048192;28;20028;-59
2022/04/13 05:07:39;;;;;;;11.80;5.93;;;;;;;8.32;100.00;100360.44;5030691;28;20024;-59
2022/04/13 05:10:05;;;;;;;13.27;6.35;;;;;;;8.31;100.00;100350.91;5051145;28;21073;-59
2022/04/13 05:12:31;;;;;;;9.80;5.75;;;;;;;8.32;100.00;100355.19;5048293;28;20833;-59
2022/04/13 05:14:56;;;;;;;15.35;6.03;;;;;;;8.06;100.00;100322.22;5048509;28;20085;-59
2022/04/13 05:17:22;;;;;;;11.73;6.45;;;;;;;8.36;100.00;100367.25;5048157;28;20059;-59
2022/04/13 05:19:48;;;;;;;7.47;5.75;;;;;;;8.38;100.00;100376.72;5048062;28;20031;-59
2022/04/13 05:22:15;;;;;;;11.32;5.97;;;;;;;7.94;100.00;100296.59;5048390;28;20087;-59
2022/04/13 05:24:40;;;;;;;9.48;5.90;;;;;;;8.42;100.00;100383.53;5048447;28;20897;-59
2022/04/13 05:27:07;;;;;;;19.30;7.30;;;;;;;8.36;100.00;100367.25;5048021;28;20075;-59
2022/04/13 05:29:33;;;;;;;13.02;7.50;;;;;;;8.59;100.00;100395.94;5047741;28;20031;-59
2022/04/13 05:31:58;;;;;;;25.13;7.05;;;;;;;8.66;100.00;100400.00;5029729;28;20024;-58
2022/04/13 05:34:24;;;;;;;15.85;6.53;;;;;;;8.65;100.00;100385.22;5048073;28;20800;-59
2022/04/13 05:36:49;;;;;;;15.23;7.93;;;;;;;8.79;100.00;100408.22;5047805;28;20764;-59
2022/04/13 05:39:14;;;;;;;13.15;7.60;;;;;;;8.83;100.00;100404.53;5047912;28;20028;-59
2022/04/13 05:41:40;;;;;;;18.02;8.65;;;;;;;8.88;100.00;100413.91;5047714;28;20801;-59
2022/04/13 05:44:05;;;;;;;21.60;8.75;;;;;;;8.91;100.00;100399.81;5047760;28;20031;-59
2022/04/13 05:46:33;;;;;;;25.63;8.20;;;;;;;8.69;100.00;100358.81;5072313;28;20040;-59
2022/04/13 05:48:59;;;;;;;24.40;8.98;;;;;;;9.07;100.00;100404.31;5093174;28;20423;-59
2022/04/13 05:51:24;;;;;;;22.45;7.57;;;;;;;9.30;100.00;100415.53;5093148;28;20055;-59
2022/04/13 05:53:50;;;;;;;14.13;8.00;;;;;;;9.42;100.00;100409.75;5074877;28;20518;-59
2022/04/13 05:56:16;;;;;;;16.42;8.00;;;;;;;9.51;100.00;100409.34;5075522;28;20136;-59
2022/04/13 05:58:41;;;;;;;18.00;7.80;;;;;;;9.65;100.00;100404.31;5045782;28;20045;-59
2022/04/13 06:01:06;;;;;;;15.43;8.70;;;;;;;9.66;100.00;100379.78;5045500;28;20026;-59
2022/04/13 06:03:32;;;;;;;15.52;7.90;;;;;;;9.70;100.00;100365.59;5046264;28;20028;-59
2022/04/13 06:05:57;;;;;;;24.98;8.60;;;;;;;10.14;100.00;100406.34;5072866;28;20028;-59
2022/04/13 06:08:23;;;;;;;18.05;8.05;;;;;;;10.31;100.00;100413.41;5067370;28;20024;-59
2022/04/13 06:10:48;;;;;;;13.90;7.72;;;;;;;10.43;100.00;100406.72;5047061;28;20784;-59
2022/04/13 06:13:14;;;;;;;15.55;8.45;;;;;;;10.64;100.00;100426.69;5045554;28;20081;-59
2022/04/13 06:15:39;;;;;;;13.27;7.88;;;;;;;10.76;100.00;100418.16;5046649;28;20028;-59
2022/04/13 06:18:05;;;;;;;12.63;8.77;;;;;;;10.92;100.00;100416.44;5045307;28;20067;-59
2022/04/13 06:20:30;;;;;;;11.93;7.43;;;;;;;11.08;100.00;100422.63;5045805;28;20038;-58
2022/04/13 06:22:55;;;;;;;22.60;8.80;;;;;;;11.11;100.00;100425.09;5028454;28;20035;-59
2022/04/13 06:25:21;;;;;;;18.00;8.80;;;;;;;11.23;100.00;100420.97;5026492;28;20025;-59
2022/04/13 06:27:46;;;;;;;16.67;8.77;;;;;;;11.35;100.00;100432.63;5032855;28;20171;-59
2022/04/13 06:30:13;;;;;;;13.32;7.75;;;;;;;11.42;100.00;100439.28;5046811;28;20058;-59
2022/04/13 06:32:41;;;;;;;14.48;8.65;;;;;;;11.43;100.00;100435.69;5045538;28;20028;-59
2022/04/13 06:35:08;;;;;;;13.27;7.82;;;;;;;11.59;100.00;100442.69;5044902;28;20466;-59
2022/04/13 06:37:38;;;;;;;10.80;7.25;;;;;;;11.67;100.00;100429.97;5040209;28;20028;-59
2022/04/13 06:40:05;;;;;;;16.40;7.97;;;;;;;11.80;100.00;100438.09;5042456;28;20121;-59
2022/04/13 06:42:34;;;;;;;14.98;8.27;;;;;;;11.92;100.00;100442.69;5046115;28;20032;-59
2022/04/13 06:45:00;;;;;;;12.55;8.43;;;;;;;12.05;100.00;100448.97;5047289;28;20032;-59
2022/04/13 06:47:26;;;;;;;18.02;8.48;;;;;;;12.17;100.00;100443.03;5027088;28;20830;-59
2022/04/13 06:49:52;;;;;;;18.48;8.90;;;;;;;12.28;100.00;100450.31;5047172;28;20027;-59
2022/04/13 06:52:17;;;;;;;29.35;13.77;;;;;;;12.20;100.00;100418.31;5045614;28;20086;-59
2022/04/13 06:54:42;;;;;;;21.65;9.98;;;;;;;12.45;100.00;100447.59;5046107;28;20028;-59
2022/04/13 06:57:08;;;;;;;31.13;10.10;;;;;;;12.49;100.00;100443.00;5045432;28;20865;-59
2022/04/13 06:59:34;;;;;;;15.90;7.43;;;;;;;12.23;100.00;100374.19;5045205;28;20986;-59
2022/04/13 07:02:00;;;;;;;14.93;8.30;;;;;;;12.94;100.00;100474.63;5029887;28;20130;-59
2022/04/13 07:04:25;;;;;;;16.63;7.80;;;;;;;13.09;100.00;100473.72;5045790;28;20233;-59
2022/04/13 07:06:50;;;;;;;11.00;7.63;;;;;;;13.22;100.00;100464.13;5045577;28;20038;-59
2022/04/13 07:09:16;;;;;;;16.30;7.72;;;;;;;13.51;100.00;100477.38;5045866;28;21028;-59
2022/04/13 07:11:41;;;;;;;9.77;6.30;;;;;;;13.71;100.00;100484.94;5045392;28;20278;-59
2022/04/13 07:14:07;;;;;;;16.40;7.13;;;;;;;13.95;100.00;100493.13;5047384;28;20039;-59
2022/04/13 07:16:32;;;;;;;9.98;6.05;;;;;;;14.22;100.00;100480.81;5027512;28;20032;-59
2022/04/13 07:18:58;;;;;;;10.80;5.97;;;;;;;14.54;100.00;100489.31;5047372;28;20032;-59
2022/04/13 07:21:24;;;;;;;13.73;5.93;;;;;;;14.76;100.00;100493.13;5047722;28;20030;-59
2022/04/13 07:23:49;;;;;;;10.73;5.25;;;;;;;14.95;100.00;100497.19;5046325;28;20088;-59
2022/04/13 07:26:14;;;;;;;10.63;4.65;;;;;;;15.09;100.00;100497.97;5045575;28;20035;-59
2022/04/13 07:28:40;;;;;;;10.90;5.10;;;;;;;15.20;100.00;100503.41;5046017;28;20087;-59
2022/04/13 07:31:05;;;;;;;12.13;6.40;;;;;;;15.23;100.00;100513.78;5046879;28;20024;-59
2022/04/13 07:33:31;;;;;;;20.00;7.13;;;;;;;15.10;100.00;100502.31;5046934;28;20113;-59
2022/04/13 07:35:58;;;;;;;15.82;8.18;;;;;;;14.99;100.00;100499.53;5049269;28;20041;-59
2022/04/13 07:38:24;;;;;;;11.55;6.88;;;;;;;14.62;100.00;100463.25;5051256;28;20860;-59
2022/04/13 07:40:49;;;;;;;15.98;7.07;;;;;;;14.77;100.00;100517.75;5055877;28;20075;-59
2022/04/13 07:43:15;;;;;;;15.20;7.10;;;;;;;14.65;100.00;100506.22;5061289;28;20801;-59
2022/04/13 07:45:41;;;;;;;14.27;7.57;;;;;;;14.58;100.00;100515.50;5062329;28;20094;-59
2022/04/13 07:48:07;;;;;;;16.75;7.45;;;;;;;14.53;100.00;100517.56;5063413;28;20035;-59
2022/04/13 07:50:32;;;;;;;16.20;7.45;;;;;;;14.53;100.00;100519.38;5069997;28;20027;-59
2022/04/13 07:52:58;;;;;;;11.85;6.65;;;;;;;14.40;100.00;100499.97;5068613;28;20880;-59
2022/04/13 07:55:24;;;;;;;10.80;6.30;;;;;;;14.51;100.00;100513.34;5067475;28;20028;-59
2022/04/13 07:57:49;;;;;;;13.68;7.22;;;;;;;14.60;100.00;100518.03;5069973;28;20081;-59
2022/04/13 08:00:15;;;;;;;15.60;6.65;;;;;;;14.75;100.00;100527.63;5072140;28;20822;-59
2022/04/13 08:02:41;;;;;;;15.75;6.65;;;;;;;14.80;100.00;100515.78;5070910;28;20564;-59
2022/04/13 08:05:07;;;;;;;15.80;6.97;;;;;;;14.98;100.00;100534.88;5072679;28;20131;-59
2022/04/13 08:07:33;;;;;;;13.63;7.60;;;;;;;15.11;100.00;100534.91;5072531;28;20030;-59
2022/04/13 08:09:59;;;;;;;9.77;6.07;;;;;;;15.13;100.00;100525.94;5079210;28;20032;-59
2022/04/13 08:12:28;;;;;;;16.42;7.25;;;;;;;15.20;100.00;100531.66;5086190;28;20139;-59
2022/04/13 08:14:54;;;;;;;9.10;5.60;;;;;;;15.24;100.00;100536.63;5085680;28;20031;-59
2022/04/13 08:17:20;;;;;;;11.40;6.10;;;;;;;15.29;100.00;100533.69;5082848;28;20035;-59
2022/04/13 08:19:45;;;;;;;12.38;6.32;;;;;;;15.32;100.00;100526.38;5080910;28;20131;-59
2022/04/13 08:22:10;;;;;;;13.27;6.28;;;;;;;15.47;100.00;100535.09;5076718;28;20030;-59
2022/04/13 08:24:36;;;;;;;14.27;5.97;;;;;;;15.56;100.00;100541.59;5072041;28;20032;-59
2022/04/13 08:27:01;;;;;;;9.55;5.97;;;;;;;15.63;100.00;100534.91;5071902;28;20036;-59
2022/04/13 08:29:26;;;;;;;8.32;5.90;;;;;;;15.77;100.00;100540.13;5071657;28;20133;-59
2022/04/13 08:31:52;;;;;;;12.55;4.50;;;;;;;15.91;100.00;100549.75;5070382;28;20055;-60
2022/04/13 08:34:17;;;;;;;12.68;3.88;;;;;;;16.00;100.00;100544.66;5068135;28;20729;-58
2022/04/13 08:36:43;;;;;;;11.48;4.00;;;;;;;16.08;100.00;100539.69;5066627;28;20146;-59
2022/04/13 08:39:13;;;;;;;7.72;4.47;;;;;;;16.19;100.00;100542.41;5063960;28;20101;-58
2022/04/13 08:42:02;;;;;;;12.52;4.32;;;;;;;16.30;100.00;100550.44;5063545;28;20101;-59
2022/04/13 08:44:38;;;;;;;7.80;4.35;;;;;;;16.31;100.00;100546.84;5059853;28;20733;-59
2022/04/13 08:47:07;;;;;;;6.70;4.13;;;;;;;16.27;100.00;100557.78;5059975;28;20047;-59
2022/04/13 08:49:39;;;;;;;6.93;3.17;;;;;;;16.19;100.00;100555.66;5041589;28;20143;-59
2022/04/13 08:52:08;;;;;;;11.00;4.65;;;;;;;16.22;100.00;100555.44;5057999;28;20028;-59
2022/04/13 08:54:41;;;;;;;13.23;5.00;;;;;;;16.36;100.00;100559.75;5054249;28;20067;-59
2022/04/13 08:57:09;;;;;;;7.32;4.50;;;;;;;16.53;100.00;100539.97;5034033;28;20810;-58
2022/04/13 09:00:00;;;;;;;8.88;5.35;;;;;;;16.67;100.00;100553.13;5032608;28;20793;-59
2022/04/13 09:02:38;;;;;;;13.05;5.45;;;;;;;16.71;100.00;100565.22;5024765;28;20063;-59
2022/04/13 09:05:10;;;;;;;12.85;5.85;;;;;;;16.66;100.00;100524.91;5048616;28;20035;-58
2022/04/13 09:07:36;;;;;;;12.18;5.95;;;;;;;16.91;100.00;100546.03;5049033;28;20088;-59
2022/04/13 09:10:03;;;;;;;13.45;6.35;;;;;;;17.10;100.00;100575.53;5047770;28;20029;-59
2022/04/13 09:12:30;;;;;;;7.82;4.85;;;;;;;17.16;100.00;100572.47;5047394;28;20819;-59
2022/04/13 09:14:57;;;;;;;8.85;5.47;;;;;;;17.43;100.00;100581.97;5029433;28;20035;-59
2022/04/13 09:17:25;;;;;;;8.57;5.47;;;;;;;17.48;100.00;100570.00;5046913;28;20101;-58
2022/04/13 09:19:51;;;;;;;14.57;5.97;;;;;;;17.87;100.00;100592.75;5026574;28;20042;-59
2022/04/13 09:22:18;;;;;;;13.13;6.07;;;;;;;18.22;100.00;100593.47;5047143;28;20952;-59
2022/04/13 09:24:44;;;;;;;10.68;4.50;;;;;;;18.54;100.00;100590.13;5046766;28;20040;-59
2022/04/13 09:27:10;;;;;;;9.00;5.38;;;;;;;18.76;100.00;100590.06;5046419;28;20106;-59
2022/04/13 09:29:37;;;;;;;7.60;4.82;;;;;;;18.74;100.00;100586.69;5047352;28;20032;-59
2022/04/13 09:32:02;;;;;;;9.90;4.85;;;;;;;18.55;100.00;100575.84;5046190;28;20032;-59
2022/04/13 09:34:28;;;;;;;7.88;4.00;;;;;;;18.36;100.00;100558.66;5048092;28;20031;-59
2022/04/13 09:36:53;;;;;;;8.50;4.60;;;;;;;18.75;100.00;100601.72;5046341;28;20024;-59
2022/04/13 09:39:19;;;;;;;10.88;4.80;;;;;;;18.83;100.00;100586.78;5028247;28;20039;-59
2022/04/13 09:41:45;;;;;;;8.45;4.13;;;;;;;18.94;100.00;100593.91;5045970;28;20059;-59
2022/04/13 09:44:15;;;;;;;9.90;5.13;;;;;;;19.08;100.00;100593.63;5045852;28;20948;-59
2022/04/13 09:46:42;;;;;;;11.55;5.15;;;;;;;19.19;100.00;100598.94;5047560;28;20899;-59
2022/04/13 09:49:12;;;;;;;10.55;5.13;;;;;;;19.29;100.00;100594.53;5047852;28;20126;-59
2022/04/13 09:51:38;;;;;;;12.88;5.93;;;;;;;19.57;100.00;100597.59;5047946;28;20020;-59
2022/04/13 09:54:08;;;;;;;12.38;6.75;;;;;;;19.60;100.00;100560.81;5047072;28;20032;-59
2022/04/13 09:56:37;;;;;;;9.95;5.60;;;;;;;20.11;100.00;100605.34;5047291;28;20028;-58
2022/04/13 09:59:04;;;;;;;10.13;6.43;;;;;;;20.00;100.00;100600.94;5046162;28;20070;-59
2022/04/13 10:01:32;;;;;;;10.55;5.95;;;;;;;19.85;100.00;100607.59;5046159;28;20872;-59
2022/04/13 10:03:57;;;;;;;8.93;5.97;;;;;;;19.69;100.00;100596.53;5046791;28;20043;-59
2022/04/13 10:06:30;;;;;;;18.58;6.45;;;;;;;19.48;100.00;100595.66;5045888;28;20083;-59
2022/04/13 10:09:00;;;;;;;10.00;6.72;;;;;;;19.01;100.00;100583.59;5046805;28;20367;-59
2022/04/13 10:11:26;;;;;;;16.60;6.38;;;;;;;19.05;100.00;100590.38;5045141;28;20202;-60
2022/04/13 10:13:51;;;;;;;16.00;6.13;;;;;;;19.11;100.00;100590.72;5045396;28;20032;-59
2022/04/13 10:16:16;;;;;;;15.05;6.30;;;;;;;19.48;100.00;100607.19;5045130;28;20032;-59
2022/04/13 10:18:59;;;;;;;8.65;6.07;;;;;;;19.81;100.00;100590.13;5044749;28;20028;-59
2022/04/13 10:21:37;;;;;;;10.02;5.97;;;;;;;20.28;100.00;100602.94;5027948;28;20139;-59
2022/04/13 10:24:04;;;;;;;13.30;5.88;;;;;;;20.61;100.00;100603.63;5044503;28;20907;-59
2022/04/13 10:26:29;;;;;;;12.25;5.78;;;;;;;20.67;100.00;100601.25;5044463;28;20034;-59
2022/04/13 10:28:54;;;;;;;11.75;6.25;;;;;;;20.56;97.01;100614.69;5046008;28;20031;-59
2022/04/13 10:31:20;;;;;;;13.98;6.65;;;;;;;20.23;100.00;100614.97;5047316;28;20035;-59
2022/04/13 10:33:49;;;;;;;11.23;6.18;;;;;;;19.85;100.00;100600.44;5044779;28;20081;-60
2022/04/13 10:36:16;;;;;;;15.57;6.57;;;;;;;19.57;100.00;100593.06;5044694;28;20028;-59
2022/04/13 10:38:41;;;;;;;11.23;6.18;;;;;;;19.67;100.00;100614.50;5045835;28;20362;-60
2022/04/13 10:41:08;;;;;;;10.35;7.65;;;;;;;19.46;100.00;100592.28;5044511;28;20089;-59
2022/04/13 10:43:34;;;;;;;13.18;6.75;;;;;;;19.40;100.00;100604.25;5044306;28;20229;-59
2022/04/13 10:46:00;;;;;;;15.55;6.75;;;;;;;19.32;100.00;100591.59;5027250;28;20826;-59
2022/04/13 10:48:31;;;;;;;10.73;6.25;;;;;;;19.27;100.00;100591.13;5045984;28;20052;-59
2022/04/13 10:51:02;;;;;;;14.25;6.47;;;;;;;19.48;100.00;100627.66;5046440;28;20030;-59
2022/04/13 10:53:29;;;;;;;10.77;6.05;;;;;;;19.41;100.00;100626.47;5045245;28;20138;-59
2022/04/13 10:56:03;;;;;;;11.93;6.80;;;;;;;19.51;100.00;100603.41;5045220;28;20032;-59
2022/04/13 10:58:43;;;;;;;10.27;6.85;;;;;;;19.71;100.00;100637.22;5043947;28;20135;-59
2022/04/13 11:01:12;;;;;;;13.65;7.05;;;;;;;19.35;100.00;100634.00;5045789;28;20048;-59
2022/04/13 11:03:38;;;;;;;13.07;7.10;;;;;;;19.35;100.00;100646.47;5044667;28;20027;-59
2022/04/13 11:06:05;;;;;;;13.23;7.43;;;;;;;19.37;100.00;100634.69;5044969;28;20054;-59
2022/04/13 11:08:52;;;;;;;10.38;6.50;;;;;;;19.52;100.00;100648.59;5026569;28;20028;-59
2022/04/13 11:11:21;;;;;;;16.35;7.13;;;;;;;19.53;100.00;100639.66;5045491;28;20865;-59